Time;durP1;ratioP1;P1;durP2;ratioP2;P2;SDS_P1;SDS_P2;PMS_P1;PMS_P2;Temp;Humidity;BMP_temperature;BMP_pressure;BME280_temperature;BME280_humidity;BME280_pressure;Samples;Min_cycle;Max_cycle;Signal;HPM_P1;HPM_P2
2021/06/29 00:00:55;;;;;;;7.75;6.25;;;;;;;22.33;48.72;100542.38;5062303;28;20075;-69
2021/06/29 00:03:22;;;;;;;9.07;6.50;;;;;;;22.35;48.62;100536.88;5068540;28;20044;-69
2021/06/29 00:05:50;;;;;;;6.93;5.90;;;;;;;22.28;48.92;100534.03;5063390;28;20434;-70
2021/06/29 00:08:17;;;;;;;7.53;5.93;;;;;;;22.44;48.27;100523.28;5055778;28;20074;-69
2021/06/29 00:10:44;;;;;;;7.95;6.70;;;;;;;22.52;48.42;100526.97;5047990;28;20076;-69
2021/06/29 00:13:13;;;;;;;6.95;5.93;;;;;;;22.46;48.43;100521.25;5089107;28;20226;-68
2021/06/29 00:15:41;;;;;;;7.22;6.40;;;;;;;22.41;48.39;100518.25;5066144;28;20128;-71
2021/06/29 00:18:08;;;;;;;9.52;5.95;;;;;;;22.34;48.68;100511.06;5050249;28;20041;-69
2021/06/29 00:20:36;;;;;;;7.60;5.75;;;;;;;22.27;48.79;100521.63;5076497;28;20531;-70
2021/06/29 00:23:04;;;;;;;8.30;5.88;;;;;;;22.30;49.08;100521.28;5068954;28;20052;-69
2021/06/29 00:25:32;;;;;;;12.85;6.50;;;;;;;22.20;48.76;100517.97;5056718;28;20082;-69
2021/06/29 00:27:59;;;;;;;8.00;5.85;;;;;;;22.30;48.50;100512.41;5061529;28;20053;-68
2021/06/29 00:30:26;;;;;;;9.18;6.35;;;;;;;22.23;48.94;100520.28;5060262;28;20072;-69
2021/06/29 00:32:54;;;;;;;7.03;5.55;;;;;;;22.19;48.99;100516.25;5061354;28;20049;-69
2021/06/29 00:35:21;;;;;;;14.38;6.50;;;;;;;22.24;49.14;100508.53;5037142;28;20381;-70
2021/06/29 00:37:48;;;;;;;6.93;6.03;;;;;;;22.13;49.14;100509.72;5074304;28;20366;-69
2021/06/29 00:40:16;;;;;;;9.13;6.05;;;;;;;22.12;49.15;100507.22;5066044;28;20124;-69
2021/06/29 00:42:43;;;;;;;6.95;6.35;;;;;;;22.07;49.31;100510.38;5043043;28;20064;-69
2021/06/29 00:45:11;;;;;;;6.78;5.85;;;;;;;22.00;49.56;100518.25;5047247;28;20052;-69
2021/06/29 00:47:39;;;;;;;8.30;6.40;;;;;;;21.96;50.06;100510.69;5038768;28;20041;-69
2021/06/29 00:50:07;;;;;;;10.88;6.00;;;;;;;21.88;50.14;100502.66;5053035;28;20056;-68
2021/06/29 00:52:34;;;;;;;9.52;6.38;;;;;;;21.88;50.51;100506.16;5045714;28;20051;-69
2021/06/29 00:55:03;;;;;;;7.97;5.90;;;;;;;21.91;50.29;100510.38;5047018;28;20052;-71
2021/06/29 00:57:30;;;;;;;9.25;6.15;;;;;;;21.86;50.52;100507.34;5071802;28;20043;-70
2021/06/29 00:59:57;;;;;;;10.10;6.18;;;;;;;21.79;50.45;100512.53;5060249;28;20048;-70
2021/06/29 01:02:25;;;;;;;8.23;6.30;;;;;;;21.75;51.08;100516.56;5059529;28;20161;-69
2021/06/29 01:04:52;;;;;;;7.53;6.57;;;;;;;21.73;51.18;100510.50;5069405;28;20136;-70
2021/06/29 01:07:20;;;;;;;7.97;6.80;;;;;;;21.55;51.91;100507.13;5046017;28;20037;-70
2021/06/29 01:09:47;;;;;;;7.22;6.47;;;;;;;21.37;52.90;100512.63;5056933;28;20058;-68
2021/06/29 01:12:16;;;;;;;7.72;6.30;;;;;;;21.34;52.42;100510.25;5057561;28;20040;-69
2021/06/29 01:14:43;;;;;;;8.43;5.90;;;;;;;21.30;52.77;100511.53;5069014;28;20059;-69
2021/06/29 01:17:13;;;;;;;8.70;7.50;;;;;;;21.15;53.69;100503.31;5067287;28;20031;-69
2021/06/29 01:19:48;;;;;;;7.35;6.47;;;;;;;21.06;54.08;100515.81;5064298;28;20398;-70
2021/06/29 01:22:16;;;;;;;9.10;6.95;;;;;;;20.93;54.66;100504.72;5046204;28;20487;-69
2021/06/29 01:24:48;;;;;;;6.72;6.13;;;;;;;21.03;53.77;100500.09;5031886;28;20057;-69
2021/06/29 01:27:27;;;;;;;7.50;6.68;;;;;;;21.01;54.17;100498.56;5047968;28;20037;-68
2021/06/29 01:32:23;;;;;;;7.50;6.70;;;;;;;20.84;54.98;100503.84;5061509;28;20054;-69
2021/06/29 01:34:51;;;;;;;7.80;6.80;;;;;;;20.82;54.89;100505.84;5045234;28;20053;-69
2021/06/29 01:37:19;;;;;;;8.30;7.30;;;;;;;20.81;54.96;100504.19;5045178;28;20097;-71
2021/06/29 01:39:58;;;;;;;11.82;7.13;;;;;;;20.77;55.49;100502.81;5065630;28;20654;-69
2021/06/29 01:42:25;;;;;;;7.35;6.65;;;;;;;20.77;55.54;100505.50;5045380;28;20067;-68
2021/06/29 01:44:53;;;;;;;7.97;7.10;;;;;;;20.87;55.12;100502.69;5061056;28;20044;-69
2021/06/29 01:47:29;;;;;;;9.65;7.50;;;;;;;20.74;55.67;100501.28;5079226;28;20136;-69
2021/06/29 01:49:56;;;;;;;8.75;7.32;;;;;;;20.87;55.19;100506.19;5072914;28;20058;-69
2021/06/29 01:52:24;;;;;;;9.23;7.00;;;;;;;20.84;55.00;100503.00;5065663;28;20055;-70
2021/06/29 01:54:51;;;;;;;9.40;7.38;;;;;;;20.86;55.19;100509.06;5061462;28;20471;-70
2021/06/29 01:57:19;;;;;;;9.60;7.47;;;;;;;20.96;54.53;100504.41;5064796;28;20510;-70
2021/06/29 01:59:49;;;;;;;9.70;7.38;;;;;;;20.96;54.75;100502.56;5068519;28;20052;-70
2021/06/29 02:02:16;;;;;;;8.77;7.90;;;;;;;21.03;54.27;100499.22;5057215;28;20044;-70
2021/06/29 02:04:44;;;;;;;7.47;6.78;;;;;;;21.05;54.43;100495.41;5041753;28;20887;-70
2021/06/29 02:07:11;;;;;;;7.88;6.30;;;;;;;20.97;54.45;100503.41;5046344;28;20057;-69
2021/06/29 02:09:38;;;;;;;8.32;7.53;;;;;;;20.84;55.78;100503.84;5063265;28;20444;-69
2021/06/29 02:12:06;;;;;;;9.50;7.18;;;;;;;20.76;55.46;100501.16;5044419;28;20060;-69
2021/06/29 02:14:34;;;;;;;8.43;7.53;;;;;;;20.68;55.47;100501.09;5069408;28;20049;-70
2021/06/29 02:17:01;;;;;;;7.93;7.22;;;;;;;20.59;55.68;100504.72;5062747;28;20049;-70
2021/06/29 02:19:29;;;;;;;7.68;6.97;;;;;;;20.51;56.26;100510.84;5064208;28;20056;-69
2021/06/29 02:21:56;;;;;;;11.30;7.50;;;;;;;20.46;56.36;100507.78;5067802;28;20055;-70
2021/06/29 02:24:24;;;;;;;11.88;8.27;;;;;;;20.46;56.20;100505.09;5066780;28;20553;-69
2021/06/29 02:26:51;;;;;;;12.57;6.95;;;;;;;20.43;56.45;100503.56;5056126;28;20063;-70
2021/06/29 02:29:19;;;;;;;8.77;7.97;;;;;;;20.51;56.64;100513.53;5064499;28;20033;-69
2021/06/29 02:31:46;;;;;;;11.48;7.75;;;;;;;20.62;56.21;100523.94;5051711;28;20052;-69
2021/06/29 02:34:14;;;;;;;9.30;7.47;;;;;;;20.60;56.12;100517.94;5067485;28;20393;-69
2021/06/29 02:36:41;;;;;;;8.15;7.35;;;;;;;20.78;55.93;100525.06;5063783;28;20428;-68
2021/06/29 02:39:08;;;;;;;9.20;7.25;;;;;;;20.88;55.83;100515.91;5031053;28;20040;-69
2021/06/29 02:41:37;;;;;;;9.43;7.30;;;;;;;21.07;55.32;100522.84;5079061;28;20071;-69
2021/06/29 02:44:04;;;;;;;8.23;7.30;;;;;;;21.18;54.38;100529.75;5075053;28;20123;-70
2021/06/29 02:46:34;;;;;;;8.07;7.28;;;;;;;21.32;54.33;100531.00;5024843;28;20051;-70
2021/06/29 02:49:03;;;;;;;12.63;7.80;;;;;;;21.36;54.18;100532.38;5063540;28;20055;-70
2021/06/29 02:51:30;;;;;;;8.02;7.22;;;;;;;21.34;54.35;100532.50;5060167;28;20075;-69
2021/06/29 02:53:57;;;;;;;10.45;7.47;;;;;;;21.35;54.18;100530.69;5060626;28;20052;-69
2021/06/29 02:56:37;;;;;;;10.85;7.38;;;;;;;21.38;54.63;100531.19;5037769;28;20071;-69
2021/06/29 02:59:13;;;;;;;8.50;6.78;;;;;;;21.47;54.54;100532.88;5062479;28;20063;-71
2021/06/29 03:01:41;;;;;;;10.10;7.72;;;;;;;21.50;54.16;100534.41;5042444;28;20049;-70
2021/06/29 03:04:10;;;;;;;9.52;8.00;;;;;;;21.60;54.07;100531.59;5030456;28;20059;-70
2021/06/29 03:06:37;;;;;;;10.55;7.57;;;;;;;21.63;54.01;100531.28;5039473;28;20174;-69
2021/06/29 03:09:06;;;;;;;9.02;7.55;;;;;;;21.61;53.98;100534.09;5063194;28;20728;-70
2021/06/29 03:11:34;;;;;;;8.57;7.28;;;;;;;21.62;54.50;100529.59;5039168;28;20385;-70
2021/06/29 03:14:02;;;;;;;9.10;7.55;;;;;;;21.59;54.14;100521.88;5071301;28;20044;-70
2021/06/29 03:16:29;;;;;;;11.63;7.82;;;;;;;21.64;54.28;100523.06;5059827;28;20049;-69
2021/06/29 03:18:57;;;;;;;8.98;7.90;;;;;;;21.66;54.03;100515.72;5065286;28;20048;-71
2021/06/29 03:21:24;;;;;;;11.95;7.65;;;;;;;21.76;54.13;100517.41;5038681;28;20045;-70
2021/06/29 03:23:52;;;;;;;10.20;8.05;;;;;;;21.65;54.70;100516.69;5047176;28;20059;-70
2021/06/29 03:26:20;;;;;;;11.98;8.35;;;;;;;21.65;54.48;100510.50;5061454;28;20048;-70
2021/06/29 03:28:47;;;;;;;12.30;7.78;;;;;;;21.70;54.16;100514.38;5070927;28;20049;-69
2021/06/29 03:31:15;;;;;;;8.88;7.45;;;;;;;21.70;54.46;100508.16;5064982;28;20062;-70
2021/06/29 03:33:42;;;;;;;9.30;8.30;;;;;;;21.80;54.27;100506.19;5077422;28;20044;-69
2021/06/29 03:36:10;;;;;;;10.23;8.30;;;;;;;21.78;54.29;100510.84;5034722;28;20052;-69
2021/06/29 03:38:38;;;;;;;8.63;7.30;;;;;;;21.78;54.75;100504.66;5069076;28;20045;-71
2021/06/29 03:41:07;;;;;;;8.65;7.75;;;;;;;21.80;54.70;100511.53;5063239;28;20061;-70
2021/06/29 03:43:37;;;;;;;9.00;8.10;;;;;;;21.82;55.05;100509.53;5067939;28;20053;-70
2021/06/29 03:46:05;;;;;;;10.82;8.63;;;;;;;21.84;54.76;100502.16;5044643;28;20053;-70
2021/06/29 03:48:34;;;;;;;12.32;7.65;;;;;;;21.87;54.45;100503.66;5069081;28;20087;-69
2021/06/29 03:51:02;;;;;;;9.90;7.47;;;;;;;21.91;54.39;100505.00;5065072;28;20543;-69
2021/06/29 03:53:30;;;;;;;11.18;8.02;;;;;;;21.94;54.63;100502.00;5050381;28;20045;-69
2021/06/29 03:55:57;;;;;;;10.63;8.52;;;;;;;21.93;54.18;100500.31;5047566;28;20073;-69
2021/06/29 03:58:24;;;;;;;8.30;7.50;;;;;;;21.99;54.12;100496.97;5068654;28;20120;-71
2021/06/29 04:00:52;;;;;;;9.00;8.10;;;;;;;21.98;54.31;100482.75;5064021;28;20049;-71
2021/06/29 04:03:20;;;;;;;9.93;7.90;;;;;;;22.07;54.45;100483.56;5069193;28;20059;-70
2021/06/29 04:05:47;;;;;;;8.82;8.02;;;;;;;22.07;54.00;100488.09;5064185;28;20053;-69
2021/06/29 04:08:14;;;;;;;11.00;8.80;;;;;;;22.02;54.52;100485.94;5066381;28;20046;-71
2021/06/29 04:10:42;;;;;;;9.90;9.00;;;;;;;21.96;54.63;100486.56;5047291;28;20060;-70
2021/06/29 04:13:09;;;;;;;11.15;8.35;;;;;;;22.06;54.36;100484.56;5072131;28;20055;-72
2021/06/29 04:15:37;;;;;;;9.68;8.30;;;;;;;22.09;54.34;100489.59;5066344;28;20423;-70
2021/06/29 04:18:09;;;;;;;14.60;7.97;;;;;;;22.14;53.98;100486.44;5069099;28;20067;-71
2021/06/29 04:20:36;;;;;;;12.43;9.15;;;;;;;22.06;54.39;100481.03;5046325;28;20055;-70
2021/06/29 04:23:04;;;;;;;10.25;7.95;;;;;;;22.21;54.41;100480.25;5078725;28;20108;-70
2021/06/29 04:25:31;;;;;;;11.68;8.55;;;;;;;22.32;53.84;100478.22;5068700;28;20052;-70
2021/06/29 04:27:59;;;;;;;10.65;8.70;;;;;;;22.43;53.99;100475.19;5071219;28;20063;-71
2021/06/29 04:30:26;;;;;;;12.73;7.43;;;;;;;22.55;53.38;100470.28;5073753;28;20118;-71
2021/06/29 04:32:54;;;;;;;12.00;8.88;;;;;;;22.65;53.29;100468.22;5046516;28;20136;-70
2021/06/29 04:35:21;;;;;;;8.82;8.02;;;;;;;22.64;53.77;100469.25;5043210;28;20059;-69
2021/06/29 04:37:49;;;;;;;9.57;8.38;;;;;;;22.81;52.92;100462.81;5031354;28;20466;-70
2021/06/29 04:40:16;;;;;;;17.15;8.30;;;;;;;22.94;52.59;100459.59;5059938;28;20043;-70
2021/06/29 04:42:44;;;;;;;13.48;8.90;;;;;;;23.01;52.43;100463.28;5061106;28;20048;-69
2021/06/29 04:45:11;;;;;;;13.10;8.18;;;;;;;23.11;52.15;100465.75;5072282;28;20056;-70
2021/06/29 04:47:44;;;;;;;17.60;8.35;;;;;;;23.11;52.18;100463.06;5063970;28;20048;-70
2021/06/29 04:50:13;;;;;;;12.43;8.88;;;;;;;23.06;52.70;100463.59;5048265;28;20047;-70
2021/06/29 04:52:40;;;;;;;11.70;8.82;;;;;;;23.23;52.24;100457.09;5062756;28;20120;-70
2021/06/29 04:55:08;;;;;;;11.23;8.18;;;;;;;23.34;52.04;100450.50;5070106;28;20060;-70
2021/06/29 04:57:36;;;;;;;11.13;9.20;;;;;;;23.60;51.41;100466.28;5063862;28;20117;-71
2021/06/29 05:00:07;;;;;;;21.63;8.50;;;;;;;23.77;50.93;100476.91;5048449;28;20067;-70
2021/06/29 05:02:35;;;;;;;12.38;8.55;;;;;;;23.82;51.15;100464.63;5041327;28;20338;-70
2021/06/29 05:05:04;;;;;;;12.52;9.13;;;;;;;24.09;50.17;100452.47;5040443;28;20049;-69
2021/06/29 05:07:51;;;;;;;13.63;8.63;;;;;;;24.15;49.72;100457.09;5025688;28;20148;-70
2021/06/29 05:10:18;;;;;;;10.25;8.38;;;;;;;24.98;48.83;100463.28;5044446;28;20040;-69
2021/06/29 05:12:48;;;;;;;13.80;8.68;;;;;;;26.87;43.56;100467.28;5028078;28;20055;-70
2021/06/29 05:15:16;;;;;;;12.48;8.70;;;;;;;28.85;39.71;100454.97;5057418;28;20051;-71
2021/06/29 05:17:43;;;;;;;12.23;7.75;;;;;;;29.77;37.54;100467.25;5038067;28;20045;-70
2021/06/29 05:20:11;;;;;;;12.73;7.75;;;;;;;30.71;35.63;100463.50;5070057;28;20056;-70
2021/06/29 05:22:39;;;;;;;11.55;7.85;;;;;;;31.71;33.28;100473.88;5040264;28;20743;-70
2021/06/29 05:25:08;;;;;;;8.73;7.90;;;;;;;31.35;34.06;100477.56;5049203;28;20067;-70
2021/06/29 05:27:40;;;;;;;12.43;7.90;;;;;;;30.51;35.51;100479.16;5044756;28;20059;-69
2021/06/29 05:30:09;;;;;;;17.55;8.30;;;;;;;29.42;37.00;100477.69;5058479;28;20609;-71
2021/06/29 05:32:36;;;;;;;13.50;7.97;;;;;;;29.64;36.89;100481.75;5069750;28;20576;-70
2021/06/29 05:35:04;;;;;;;14.45;9.27;;;;;;;29.38;37.57;100479.97;5052783;28;20045;-72
2021/06/29 05:37:32;;;;;;;11.27;8.55;;;;;;;29.00;38.11;100485.41;5077115;28;20062;-71
2021/06/29 05:39:59;;;;;;;12.07;8.05;;;;;;;27.98;40.41;100482.16;5049613;28;20036;-71
2021/06/29 05:42:26;;;;;;;12.93;9.48;;;;;;;27.66;41.08;100481.06;5065551;28;20045;-70
2021/06/29 05:44:54;;;;;;;14.30;9.68;;;;;;;27.24;42.50;100477.66;5052333;28;20473;-72
2021/06/29 05:47:22;;;;;;;19.30;9.35;;;;;;;27.01;42.99;100477.91;5059142;28;20064;-70
2021/06/29 05:49:49;;;;;;;20.20;9.80;;;;;;;26.60;43.81;100479.78;5066991;28;20104;-71
2021/06/29 05:52:17;;;;;;;21.05;10.20;;;;;;;26.37;44.41;100486.25;5064973;28;20078;-70
2021/06/29 05:54:45;;;;;;;23.02;9.55;;;;;;;26.47;44.67;100477.84;5068585;28;20049;-70
2021/06/29 05:57:13;;;;;;;17.17;10.00;;;;;;;26.39;44.96;100469.88;5069366;28;20038;-71
2021/06/29 05:59:41;;;;;;;19.17;10.07;;;;;;;26.38;45.25;100468.19;5051261;28;20053;-71
2021/06/29 06:02:10;;;;;;;22.75;9.93;;;;;;;26.23;46.12;100461.03;5042854;28;20059;-72
2021/06/29 06:04:37;;;;;;;20.80;10.50;;;;;;;26.35;45.79;100464.03;5028339;28;20057;-71
2021/06/29 06:07:05;;;;;;;15.88;8.90;;;;;;;26.44;45.88;100473.69;5054529;28;20071;-70
2021/06/29 06:09:32;;;;;;;16.33;10.18;;;;;;;26.95;44.19;100467.94;5062788;28;20539;-70
2021/06/29 06:12:00;;;;;;;19.27;10.07;;;;;;;27.17;43.66;100465.97;5051807;28;20076;-71
2021/06/29 06:14:27;;;;;;;20.52;10.05;;;;;;;27.31;43.46;100466.84;5050428;28;20048;-71
2021/06/29 06:16:55;;;;;;;25.45;11.20;;;;;;;27.99;42.11;100461.34;5042767;28;20060;-69
2021/06/29 06:19:23;;;;;;;15.07;8.73;;;;;;;28.63;40.68;100460.66;5075907;28;20052;-71
2021/06/29 06:21:50;;;;;;;21.88;9.65;;;;;;;28.84;40.37;100464.97;5057392;28;20063;-70
2021/06/29 06:24:17;;;;;;;16.67;9.75;;;;;;;28.76;40.74;100457.09;5050256;28;20048;-71
2021/06/29 06:26:45;;;;;;;19.50;8.73;;;;;;;29.13;40.25;100460.91;5057749;28;20138;-71
2021/06/29 06:29:12;;;;;;;15.25;9.07;;;;;;;31.13;37.09;100447.28;5065787;28;20052;-72
2021/06/29 06:31:40;;;;;;;11.52;8.65;;;;;;;33.89;31.28;100448.81;5069359;28;20041;-70
2021/06/29 06:34:07;;;;;;;15.07;9.25;;;;;;;34.67;29.88;100451.63;5061314;28;20048;-71
2021/06/29 06:36:35;;;;;;;17.00;8.93;;;;;;;35.84;28.44;100450.16;5037709;28;20056;-71
2021/06/29 06:39:03;;;;;;;12.93;9.25;;;;;;;36.45;27.41;100455.28;5068523;28;20056;-70
2021/06/29 06:41:30;;;;;;;10.98;8.80;;;;;;;35.59;28.08;100453.53;5060927;28;20044;-71
2021/06/29 06:43:58;;;;;;;11.75;9.70;;;;;;;34.17;30.37;100455.28;5066014;28;20047;-71
2021/06/29 06:46:25;;;;;;;17.83;8.88;;;;;;;33.30;31.53;100442.84;5062240;28;20413;-70
2021/06/29 06:48:53;;;;;;;12.05;9.10;;;;;;;33.74;31.73;100454.84;5048454;28;20384;-70
2021/06/29 06:51:20;;;;;;;19.52;9.70;;;;;;;35.33;29.31;100435.16;5032122;28;20058;-71
2021/06/29 06:53:50;;;;;;;16.17;8.80;;;;;;;36.51;27.25;100435.03;5036151;28;20520;-70
2021/06/29 06:56:20;;;;;;;10.57;9.48;;;;;;;34.38;29.88;100445.47;5056367;28;20117;-76
2021/06/29 06:58:53;;;;;;;14.13;9.43;;;;;;;34.52;30.12;100444.06;5069560;28;20699;-76
2021/06/29 07:01:29;;;;;;;17.63;9.25;;;;;;;34.98;29.15;100445.47;5067563;28;20449;-71
2021/06/29 07:03:56;;;;;;;12.88;8.77;;;;;;;34.46;30.38;100443.16;5069229;28;20062;-70
2021/06/29 07:06:24;;;;;;;17.95;10.40;;;;;;;35.40;28.86;100446.75;5061982;28;20052;-70
2021/06/29 07:08:51;;;;;;;12.32;9.57;;;;;;;36.32;27.35;100442.84;5034558;28;20055;-71
2021/06/29 07:11:29;;;;;;;11.82;9.05;;;;;;;37.79;25.16;100449.94;5047736;28;20689;-70
2021/06/29 07:13:57;;;;;;;16.45;9.07;;;;;;;38.80;23.91;100458.28;5053222;28;20048;-71
2021/06/29 07:16:26;;;;;;;14.32;9.93;;;;;;;39.71;23.23;100446.72;5064218;28;20086;-71
2021/06/29 07:18:53;;;;;;;17.15;10.18;;;;;;;40.68;21.95;100448.50;5047264;28;20052;-71
2021/06/29 07:21:26;;;;;;;12.98;10.75;;;;;;;38.03;24.87;100444.69;5064475;28;20051;-72
2021/06/29 07:23:54;;;;;;;11.30;9.77;;;;;;;36.99;26.24;100442.09;5067422;28;20068;-70
2021/06/29 07:26:22;;;;;;;12.95;9.80;;;;;;;38.04;25.15;100440.84;5060440;28;20603;-72
2021/06/29 07:28:50;;;;;;;13.15;10.32;;;;;;;38.25;24.45;100436.13;5068187;28;20058;-70
2021/06/29 07:31:18;;;;;;;10.65;8.93;;;;;;;38.86;24.11;100437.88;5067402;28;20142;-72
2021/06/29 07:33:46;;;;;;;15.18;10.15;;;;;;;38.99;24.00;100438.06;5070827;28;20571;-71
2021/06/29 07:36:15;;;;;;;9.93;8.95;;;;;;;39.75;22.71;100433.19;5065721;28;20331;-70
2021/06/29 07:38:44;;;;;;;13.32;8.90;;;;;;;39.91;22.78;100434.69;5053203;28;20058;-70
2021/06/29 07:41:12;;;;;;;12.05;9.95;;;;;;;40.13;22.21;100430.66;5038187;28;20054;-70
2021/06/29 07:43:40;;;;;;;15.88;9.52;;;;;;;37.34;25.72;100434.22;5069113;28;20044;-71
2021/06/29 07:46:07;;;;;;;8.93;7.97;;;;;;;36.04;27.25;100430.34;5063706;28;20481;-69
2021/06/29 07:48:35;;;;;;;10.48;8.30;;;;;;;35.90;26.58;100423.66;5069448;28;20055;-72
2021/06/29 07:51:05;;;;;;;10.20;9.13;;;;;;;35.10;28.72;100420.72;5041226;28;20050;-70
2021/06/29 07:53:33;;;;;;;9.93;8.18;;;;;;;35.00;28.41;100421.44;5062732;28;20109;-69
2021/06/29 07:56:00;;;;;;;11.48;8.43;;;;;;;35.14;29.12;100421.84;5065568;28;20068;-71
2021/06/29 07:58:28;;;;;;;14.50;7.60;;;;;;;35.12;29.02;100417.72;5068882;28;20040;-70
2021/06/29 08:00:56;;;;;;;13.68;8.20;;;;;;;35.14;28.84;100415.56;5066499;28;20093;-69
2021/06/29 08:03:24;;;;;;;13.75;8.55;;;;;;;35.19;28.71;100413.69;5050703;28;20048;-70
2021/06/29 08:05:52;;;;;;;15.23;9.57;;;;;;;34.74;29.84;100414.81;5061025;28;20053;-71
2021/06/29 08:08:22;;;;;;;13.18;8.45;;;;;;;34.86;29.82;100420.16;5065004;28;20074;-70
2021/06/29 08:10:49;;;;;;;15.90;9.63;;;;;;;34.38;30.12;100412.69;5067821;28;20067;-71
2021/06/29 08:13:17;;;;;;;15.38;8.77;;;;;;;34.67;29.32;100425.09;5065963;28;20086;-70
2021/06/29 08:15:45;;;;;;;48.03;13.20;;;;;;;35.04;29.09;100415.47;5048136;28;20135;-70
2021/06/29 08:18:15;;;;;;;17.48;8.98;;;;;;;34.61;29.81;100408.91;5052392;28;20040;-72
2021/06/29 08:20:43;;;;;;;12.25;8.38;;;;;;;35.63;28.90;100407.28;5068578;28;20055;-70
2021/06/29 08:23:11;;;;;;;23.15;9.48;;;;;;;37.95;24.89;100412.28;5075134;28;20108;-69
2021/06/29 08:25:39;;;;;;;9.80;8.40;;;;;;;38.41;24.14;100409.44;5049238;28;20135;-69
2021/06/29 08:28:06;;;;;;;9.50;8.52;;;;;;;38.94;23.15;100407.84;5051476;28;20075;-70
2021/06/29 08:30:36;;;;;;;12.98;8.07;;;;;;;38.88;23.42;100408.97;5081110;28;20116;-70
2021/06/29 08:33:06;;;;;;;20.42;9.65;;;;;;;37.36;25.03;100410.03;5066272;28;20104;-67
2021/06/29 08:35:33;;;;;;;10.40;7.78;;;;;;;36.74;26.07;100407.13;5070821;28;20108;-69
2021/06/29 08:38:01;;;;;;;18.20;8.18;;;;;;;34.57;28.92;100400.38;5049549;28;20143;-71
2021/06/29 08:40:28;;;;;;;12.27;8.75;;;;;;;33.79;30.51;100407.69;5072064;28;20064;-70
2021/06/29 08:42:56;;;;;;;12.40;7.70;;;;;;;33.76;31.23;100405.44;5047936;28;20100;-69
2021/06/29 08:45:24;;;;;;;12.90;7.20;;;;;;;33.22;32.02;100407.78;5072891;28;20461;-70
2021/06/29 08:47:51;;;;;;;10.55;7.30;;;;;;;33.31;31.80;100403.56;5047208;28;20045;-69
2021/06/29 08:50:19;;;;;;;9.20;7.28;;;;;;;33.35;31.79;100398.47;5070099;28;20135;-70
2021/06/29 08:52:47;;;;;;;8.57;7.00;;;;;;;32.70;33.02;100403.22;5071266;28;20100;-70
2021/06/29 08:55:14;;;;;;;13.27;7.57;;;;;;;32.94;32.29;100397.72;5047729;28;20307;-70
2021/06/29 08:57:42;;;;;;;14.13;7.55;;;;;;;32.22;33.31;100398.88;5048014;28;20040;-71
2021/06/29 09:00:11;;;;;;;9.98;7.45;;;;;;;32.47;33.31;100398.66;5046037;28;20057;-70
2021/06/29 09:02:40;;;;;;;11.80;7.57;;;;;;;32.49;33.10;100391.06;5063814;28;20024;-69
2021/06/29 09:05:21;;;;;;;8.65;7.43;;;;;;;32.66;33.11;100390.31;5031059;28;20051;-71
2021/06/29 09:08:11;;;;;;;9.90;6.20;;;;;;;32.92;31.59;100395.22;5063240;28;20051;-69
2021/06/29 09:10:40;;;;;;;29.08;9.25;;;;;;;32.68;31.74;100382.72;5052256;28;20052;-68
2021/06/29 09:13:08;;;;;;;13.38;7.28;;;;;;;32.46;32.51;100385.25;5052722;28;20045;-69
2021/06/29 09:15:42;;;;;;;16.80;6.95;;;;;;;32.40;33.03;100395.22;5049225;28;20055;-69
2021/06/29 09:18:12;;;;;;;16.77;7.20;;;;;;;32.20;33.84;100386.59;5057234;28;20752;-68
2021/06/29 09:20:49;;;;;;;7.75;6.35;;;;;;;32.66;32.75;100382.97;5075937;28;20065;-71
2021/06/29 09:23:22;;;;;;;12.25;6.95;;;;;;;32.51;32.81;100378.03;5066599;28;20150;-68
2021/06/29 09:25:55;;;;;;;12.70;7.03;;;;;;;32.39;32.85;100381.84;5064067;28;20063;-71
2021/06/29 09:28:27;;;;;;;8.50;6.75;;;;;;;32.31;33.06;100379.47;5048932;28;20455;-68
2021/06/29 09:31:03;;;;;;;15.35;7.60;;;;;;;32.42;32.79;100392.25;5061662;28;20071;-68
2021/06/29 09:33:35;;;;;;;10.82;6.70;;;;;;;32.22;33.17;100388.00;5062504;28;20048;-69
2021/06/29 09:36:12;;;;;;;7.65;7.00;;;;;;;32.25;33.57;100387.53;5046831;28;20043;-68
2021/06/29 09:38:44;;;;;;;14.65;6.72;;;;;;;31.73;34.87;100383.81;5051297;28;20054;-69
2021/06/29 09:41:19;;;;;;;10.43;6.95;;;;;;;31.59;35.19;100385.94;5029469;28;20047;-69
2021/06/29 09:43:49;;;;;;;14.90;7.82;;;;;;;31.45;35.12;100385.34;5049658;28;20100;-69
2021/06/29 09:46:19;;;;;;;10.10;7.47;;;;;;;31.50;35.10;100376.47;5071655;28;20120;-69
2021/06/29 09:48:53;;;;;;;12.20;7.03;;;;;;;31.26;35.00;100383.72;5047690;28;20044;-70
2021/06/29 09:51:44;;;;;;;12.45;6.90;;;;;;;31.06;35.21;100375.00;5040391;28;20058;-71
2021/06/29 09:54:13;;;;;;;8.18;6.93;;;;;;;31.03;35.35;100373.59;5066162;28;20506;-71
2021/06/29 09:56:44;;;;;;;13.20;7.00;;;;;;;31.20;35.26;100371.84;5049415;28;20041;-67
2021/06/29 09:59:15;;;;;;;10.38;7.38;;;;;;;31.55;34.18;100373.03;5047828;28;20065;-69
2021/06/29 10:01:44;;;;;;;13.65;7.82;;;;;;;31.67;34.57;100366.56;5066767;28;20046;-71
2021/06/29 10:04:11;;;;;;;13.35;7.78;;;;;;;32.22;33.83;100362.66;5065400;28;20084;-69
2021/06/29 10:06:39;;;;;;;8.60;7.15;;;;;;;32.68;32.66;100364.47;5063747;28;20052;-70
2021/06/29 10:09:12;;;;;;;13.07;7.60;;;;;;;32.47;32.65;100359.69;5056066;28;20672;-68
2021/06/29 10:11:42;;;;;;;7.80;7.03;;;;;;;32.39;33.34;100352.72;5037994;28;20127;-69
2021/06/29 10:14:14;;;;;;;8.63;7.20;;;;;;;32.62;33.02;100351.81;5065225;28;20103;-69
2021/06/29 10:16:46;;;;;;;13.13;8.00;;;;;;;32.31;33.66;100363.13;5045606;28;20051;-70
2021/06/29 10:19:23;;;;;;;11.48;7.65;;;;;;;32.47;32.81;100346.06;5068446;28;20133;-70
2021/06/29 10:21:54;;;;;;;16.30;8.57;;;;;;;32.71;32.73;100349.53;5068928;28;20048;-69
2021/06/29 10:24:24;;;;;;;8.27;7.40;;;;;;;33.08;32.29;100339.06;5048817;28;20051;-70
2021/06/29 10:26:55;;;;;;;12.60;7.75;;;;;;;32.96;32.65;100347.31;5052309;28;20095;-70
2021/06/29 10:29:24;;;;;;;8.98;7.93;;;;;;;32.72;33.08;100343.00;5064383;28;20048;-69
2021/06/29 10:31:57;;;;;;;8.07;7.28;;;;;;;33.73;31.25;100341.25;5046500;28;20064;-70
2021/06/29 10:34:25;;;;;;;10.52;7.43;;;;;;;33.70;30.60;100333.56;5046528;28;20042;-70
2021/06/29 10:36:55;;;;;;;9.82;7.43;;;;;;;33.25;31.31;100334.47;5066616;28;20052;-70
2021/06/29 10:39:25;;;;;;;9.95;7.47;;;;;;;33.02;31.84;100340.06;5072245;28;20211;-69
2021/06/29 10:41:54;;;;;;;8.07;7.00;;;;;;;32.96;31.71;100335.56;5077590;28;20092;-70
2021/06/29 10:44:21;;;;;;;8.07;7.20;;;;;;;32.60;32.17;100334.84;5061421;28;20207;-70
2021/06/29 10:46:51;;;;;;;8.30;7.50;;;;;;;32.93;31.67;100330.63;5066966;28;20055;-69
2021/06/29 10:49:37;;;;;;;12.38;7.20;;;;;;;32.90;31.82;100325.63;5065654;28;20052;-69
2021/06/29 10:52:22;;;;;;;8.02;6.82;;;;;;;32.37;33.00;100321.28;5062765;28;20048;-69
2021/06/29 10:54:53;;;;;;;11.30;7.80;;;;;;;32.42;32.45;100314.09;5060823;28;20685;-69
2021/06/29 10:57:37;;;;;;;13.27;8.52;;;;;;;32.14;32.64;100309.38;5063819;28;20041;-70
2021/06/29 11:00:28;;;;;;;8.43;7.18;;;;;;;31.71;33.55;100316.03;5046523;28;20044;-68
2021/06/29 11:03:10;;;;;;;8.45;7.65;;;;;;;31.38;33.92;100304.88;5042802;28;20055;-70
2021/06/29 11:05:43;;;;;;;8.07;7.28;;;;;;;31.31;33.95;100318.59;5059431;28;20412;-71
2021/06/29 11:08:15;;;;;;;14.55;7.35;;;;;;;31.08;34.44;100318.53;5056268;28;20060;-69
2021/06/29 11:10:48;;;;;;;9.65;8.73;;;;;;;30.81;35.70;100321.63;5045731;28;20036;-69
2021/06/29 11:13:18;;;;;;;16.75;8.38;;;;;;;30.27;39.86;100335.03;5071114;28;20123;-71
2021/06/29 11:15:49;;;;;;;35.78;13.45;;;;;;;26.38;60.47;100355.66;5056452;28;20105;-68
2021/06/29 11:18:22;;;;;;;22.70;7.45;;;;;;;23.54;60.88;100413.25;5067386;28;20051;-68
2021/06/29 11:20:53;;;;;;;15.73;8.90;;;;;;;21.47;65.80;100518.66;5046203;28;20083;-69
2021/06/29 11:23:25;;;;;;;19.80;12.05;;;;;;;19.62;89.58;100485.03;5039454;28;20045;-69
2021/06/29 11:25:54;;;;;;;12.38;6.75;;;;;;;18.87;81.58;100559.06;5056820;28;20699;-68
2021/06/29 11:28:44;;;;;;;26.52;12.32;;;;;;;19.06;87.28;100378.53;5067077;28;20509;-70
2021/06/29 11:31:21;;;;;;;16.33;13.07;;;;;;;19.33;90.94;100349.09;5049492;28;20057;-68